Time;durP1;ratioP1;P1;durP2;ratioP2;P2;SDS_P1;SDS_P2;PMS_P1;PMS_P2;Temp;Humidity;BMP_temperature;BMP_pressure;BME280_temperature;BME280_humidity;BME280_pressure;Samples;Min_cycle;Max_cycle;Signal;HPM_P1;HPM_P2
2022/04/16 00:01:05;;;;;;;2.30;2.10;;;17.60;54.60;;;;;;5054408;28;20171;-89
2022/04/16 00:03:32;;;;;;;3.47;2.67;;;17.50;54.60;;;;;;5038264;28;20224;-90
2022/04/16 00:05:58;;;;;;;3.47;2.40;;;17.50;54.60;;;;;;5038238;28;20234;-90
2022/04/16 00:08:26;;;;;;;3.00;2.33;;;17.50;55.00;;;;;;5038498;28;20179;-90
2022/04/16 00:10:53;;;;;;;3.33;2.40;;;17.50;54.60;;;;;;5038421;28;20178;-90
2022/04/16 00:13:20;;;;;;;2.53;2.30;;;17.50;54.60;;;;;;5037594;28;20231;-90
2022/04/16 00:15:47;;;;;;;2.37;2.17;;;17.50;54.60;;;;;;5038495;28;20304;-90
2022/04/16 00:18:13;;;;;;;3.03;2.50;;;17.50;54.50;;;;;;5055908;28;20556;-90
2022/04/16 00:20:40;;;;;;;2.60;2.40;;;17.50;54.50;;;;;;5040105;28;20190;-90
2022/04/16 00:23:07;;;;;;;2.30;2.10;;;17.50;54.50;;;;;;5059080;28;20306;-90
2022/04/16 00:25:34;;;;;;;2.40;2.20;;;17.40;54.40;;;;;;5059911;28;20228;-90
2022/04/16 00:28:00;;;;;;;2.53;2.00;;;17.40;54.50;;;;;;5041919;28;20312;-90
2022/04/16 00:30:26;;;;;;;2.57;2.30;;;17.40;54.40;;;;;;5042219;28;20178;-90
2022/04/16 00:32:55;;;;;;;2.70;2.47;;;17.40;54.50;;;;;;5041301;28;20337;-90
2022/04/16 00:35:24;;;;;;;2.63;2.27;;;17.40;54.50;;;;;;5041798;28;20199;-90
2022/04/16 00:37:50;;;;;;;2.37;2.03;;;17.40;54.50;;;;;;5041780;28;20181;-90
2022/04/16 00:40:16;;;;;;;2.80;2.33;;;17.40;54.50;;;;;;5042033;28;20196;-90
2022/04/16 00:42:44;;;;;;;2.73;2.17;;;17.40;54.50;;;;;;5041433;28;20532;-90
2022/04/16 00:45:11;;;;;;;2.83;2.10;;;17.40;54.50;;;;;;5041956;28;20226;-90
2022/04/16 00:47:36;;;;;;;2.57;2.17;;;17.40;54.50;;;;;;5040725;28;20217;-90
2022/04/16 00:50:08;;;;;;;2.40;2.20;;;17.30;54.40;;;;;;5059294;28;20167;-90
2022/04/16 00:52:35;;;;;;;2.43;2.23;;;17.30;54.40;;;;;;5040964;28;20177;-90
2022/04/16 00:55:01;;;;;;;2.50;1.90;;;17.30;54.40;;;;;;5020422;28;20242;-90
2022/04/16 00:57:27;;;;;;;2.30;2.10;;;17.30;54.40;;;;;;5040333;28;20510;-90
2022/04/16 00:59:54;;;;;;;2.30;2.10;;;17.30;54.40;;;;;;5040541;28;20175;-90
2022/04/16 01:02:21;;;;;;;2.43;2.13;;;17.30;54.40;;;;;;5038871;28;20268;-90
2022/04/16 01:04:47;;;;;;;2.63;2.30;;;17.30;54.40;;;;;;5057295;28;20186;-89
2022/04/16 01:07:13;;;;;;;2.27;2.00;;;17.30;54.80;;;;;;5040322;28;20210;-90
2022/04/16 01:09:39;;;;;;;2.17;1.97;;;17.30;54.40;;;;;;5040375;28;20183;-90
2022/04/16 01:12:06;;;;;;;3.27;2.07;;;17.20;54.40;;;;;;5041073;28;20265;-90
2022/04/16 01:14:32;;;;;;;2.17;1.97;;;17.20;54.40;;;;;;5039960;28;20182;-90
2022/04/16 01:16:58;;;;;;;2.33;2.13;;;17.20;54.40;;;;;;5041025;28;20518;-90
2022/04/16 01:19:25;;;;;;;2.27;2.07;;;17.20;54.40;;;;;;5039651;28;20184;-90
2022/04/16 01:21:51;;;;;;;2.20;1.90;;;17.20;54.40;;;;;;5040789;28;20273;-89
2022/04/16 01:24:17;;;;;;;2.83;1.80;;;17.20;54.40;;;;;;5041202;28;20175;-90
2022/04/16 01:26:43;;;;;;;2.30;2.10;;;17.20;54.40;;;;;;5041069;28;20267;-89
2022/04/16 01:29:12;;;;;;;2.13;1.93;;;17.20;54.40;;;;;;5039925;28;20191;-89
2022/04/16 01:31:38;;;;;;;2.57;2.10;;;17.10;54.40;;;;;;5038782;28;20169;-91
2022/04/16 01:34:06;;;;;;;2.23;2.00;;;17.10;54.40;;;;;;5039329;28;20329;-90
2022/04/16 01:36:34;;;;;;;2.10;1.90;;;17.10;54.40;;;;;;5040301;28;20192;-90
2022/04/16 01:39:00;;;;;;;2.33;2.10;;;17.10;54.40;;;;;;5057145;28;20483;-89
2022/04/16 01:41:28;;;;;;;2.37;2.03;;;17.10;54.40;;;;;;5040287;28;20183;-90
2022/04/16 01:43:54;;;;;;;2.20;2.00;;;17.10;54.40;;;;;;5039878;28;20190;-90
2022/04/16 01:46:21;;;;;;;2.30;2.10;;;17.10;54.40;;;;;;5057677;28;20293;-90
2022/04/16 01:48:49;;;;;;;2.30;1.90;;;17.10;54.40;;;;;;5040202;28;20580;-90
2022/04/16 01:51:17;;;;;;;2.10;1.90;;;17.10;54.40;;;;;;5040125;28;20210;-90
2022/04/16 01:53:44;;;;;;;1.87;1.67;;;17.10;54.40;;;;;;5040470;28;20207;-90
2022/04/16 01:56:11;;;;;;;1.97;1.80;;;17.00;54.30;;;;;;5039712;28;20421;-90
2022/04/16 01:58:38;;;;;;;2.20;1.90;;;17.00;54.40;;;;;;5040608;28;20240;-90
2022/04/16 02:01:05;;;;;;;2.03;1.83;;;17.00;54.40;;;;;;5040130;28;20276;-90
2022/04/16 02:03:31;;;;;;;2.00;1.80;;;17.00;54.30;;;;;;5040748;28;20186;-90
2022/04/16 02:05:57;;;;;;;2.13;1.80;;;17.00;54.30;;;;;;5039929;28;20185;-90
2022/04/16 02:08:23;;;;;;;2.47;1.90;;;17.00;54.30;;;;;;5040717;28;20727;-90
2022/04/16 02:10:48;;;;;;;2.00;1.80;;;17.00;54.30;;;;;;5040446;28;20194;-90
2022/04/16 02:13:14;;;;;;;2.00;1.80;;;17.00;54.30;;;;;;5040332;28;20170;-90
2022/04/16 02:15:40;;;;;;;2.20;1.83;;;17.00;54.30;;;;;;5039946;28;20578;-90
2022/04/16 02:18:06;;;;;;;2.00;1.80;;;17.00;54.30;;;;;;5040078;28;20173;-90
2022/04/16 02:20:31;;;;;;;1.93;1.83;;;16.90;54.30;;;;;;5040435;28;20586;-90
2022/04/16 02:22:57;;;;;;;1.57;1.43;;;16.90;54.30;;;;;;5039426;28;20181;-90
2022/04/16 02:25:26;;;;;;;2.33;2.13;;;16.90;54.30;;;;;;5039847;28;20181;-90
2022/04/16 02:27:52;;;;;;;2.10;1.90;;;16.90;54.30;;;;;;5040277;28;20608;-90
2022/04/16 02:30:20;;;;;;;3.63;1.80;;;16.90;54.30;;;;;;5040051;28;20173;-90
2022/04/16 02:32:47;;;;;;;3.47;1.97;;;16.90;54.30;;;;;;5040021;28;20183;-90
2022/04/16 02:35:15;;;;;;;1.93;1.63;;;16.90;54.30;;;;;;5038866;28;20191;-90
2022/04/16 02:37:42;;;;;;;1.93;1.83;;;16.90;54.30;;;;;;5040016;28;20172;-90
2022/04/16 02:40:08;;;;;;;1.93;1.70;;;16.80;54.30;;;;;;5040056;28;20240;-90
2022/04/16 02:42:39;;;;;;;2.10;1.70;;;16.80;54.30;;;;;;5038405;28;20174;-90
2022/04/16 02:47:52;;;;;;;1.73;1.63;;;16.80;54.20;;;;;;5056681;28;20632;-90
2022/04/16 02:50:19;;;;;;;1.90;1.70;;;16.80;54.30;;;;;;5038922;28;20174;-90
2022/04/16 02:52:46;;;;;;;1.70;1.60;;;16.80;54.30;;;;;;5039490;28;20183;-90
2022/04/16 02:55:15;;;;;;;1.97;1.60;;;16.80;54.30;;;;;;5039712;28;20180;-90
2022/04/16 02:57:44;;;;;;;1.70;1.60;;;16.80;54.30;;;;;;5039027;28;20183;-90
2022/04/16 03:00:12;;;;;;;1.87;1.77;;;16.80;54.30;;;;;;5038989;28;20180;-90
2022/04/16 03:02:38;;;;;;;2.10;1.50;;;16.80;54.30;;;;;;5038418;28;20180;-90
2022/04/16 03:05:06;;;;;;;2.10;1.90;;;16.80;54.20;;;;;;5038534;28;20179;-90
2022/04/16 03:07:33;;;;;;;1.93;1.73;;;16.70;54.20;;;;;;5038989;28;20249;-90
2022/04/16 03:09:58;;;;;;;1.50;1.40;;;16.70;54.20;;;;;;5038229;28;20170;-90
2022/04/16 03:12:24;;;;;;;2.60;1.63;;;16.70;54.20;;;;;;5040333;28;20274;-89
2022/04/16 03:17:36;;;;;;;2.43;1.80;;;16.70;54.10;;;;;;5024845;28;20177;-89
2022/04/16 03:20:04;;;;;;;2.13;1.90;;;16.70;54.20;;;;;;5039160;28;20233;-89
2022/04/16 03:22:34;;;;;;;1.80;1.60;;;16.70;54.10;;;;;;5038339;28;20181;-90
2022/04/16 03:25:09;;;;;;;2.20;1.70;;;16.70;54.10;;;;;;5038279;28;20545;-89
2022/04/16 03:27:37;;;;;;;2.17;1.83;;;16.70;54.10;;;;;;5038964;28;20209;-90
2022/04/16 03:30:07;;;;;;;1.70;1.60;;;16.70;54.10;;;;;;5037666;28;20177;-90
2022/04/16 03:32:37;;;;;;;2.00;1.80;;;16.70;54.10;;;;;;5038512;28;20489;-90
2022/04/16 03:35:05;;;;;;;1.80;1.60;;;16.60;54.00;;;;;;5037876;28;20271;-89
2022/04/16 03:37:32;;;;;;;2.00;1.70;;;16.60;54.00;;;;;;5037725;28;20179;-90
2022/04/16 03:39:58;;;;;;;1.53;1.43;;;16.60;54.00;;;;;;5038244;28;20190;-90
2022/04/16 03:42:23;;;;;;;1.60;1.50;;;16.60;54.00;;;;;;5037852;28;20499;-89
2022/04/16 03:44:49;;;;;;;1.57;1.47;;;16.60;53.90;;;;;;5037599;28;20570;-90
2022/04/16 03:47:15;;;;;;;1.87;1.73;;;16.60;54.00;;;;;;5038052;28;20309;-90
2022/04/16 03:49:41;;;;;;;1.60;1.50;;;16.60;54.00;;;;;;5037164;28;20275;-90
2022/04/16 03:52:07;;;;;;;1.73;1.57;;;16.60;53.90;;;;;;5037827;28;20173;-89
2022/04/16 04:00:03;;;;;;;1.60;1.50;;;16.60;54.30;;;;;;5054945;28;20514;-89
2022/04/16 04:02:30;;;;;;;1.63;1.53;;;16.60;53.90;;;;;;5037768;28;20545;-89
2022/04/16 04:04:57;;;;;;;1.73;1.60;;;16.60;53.80;;;;;;5037567;28;20265;-90
2022/04/16 04:07:24;;;;;;;1.70;1.60;;;16.60;53.80;;;;;;5055137;28;20288;-90
2022/04/16 04:09:49;;;;;;;1.80;1.70;;;16.60;53.80;;;;;;5037988;28;20545;-90
2022/04/16 04:12:16;;;;;;;1.47;1.37;;;16.60;53.80;;;;;;5037356;28;20193;-89
2022/04/16 04:14:44;;;;;;;1.90;1.70;;;16.60;53.80;;;;;;5037326;28;20175;-90
2022/04/16 04:17:10;;;;;;;1.80;1.60;;;16.50;54.10;;;;;;5037631;28;20181;-90
2022/04/16 04:19:38;;;;;;;1.40;1.30;;;16.50;53.70;;;;;;5037707;28;20239;-89
2022/04/16 04:22:06;;;;;;;1.90;1.80;;;16.50;53.70;;;;;;5038471;28;20511;-89
2022/04/16 04:24:32;;;;;;;1.50;1.40;;;16.50;53.70;;;;;;5038107;28;20184;-89
2022/04/16 04:26:59;;;;;;;2.93;1.60;;;16.50;53.60;;;;;;5037681;28;20229;-89
2022/04/16 04:29:25;;;;;;;1.73;1.50;;;16.50;53.60;;;;;;5037025;28;20555;-89
2022/04/16 04:31:51;;;;;;;1.70;1.60;;;16.50;53.60;;;;;;5037928;28;20245;-90
2022/04/16 04:34:17;;;;;;;1.70;1.60;;;16.50;53.60;;;;;;5038016;28;20469;-89
2022/04/16 04:36:44;;;;;;;1.60;1.50;;;16.50;53.60;;;;;;5037100;28;20196;-89
2022/04/16 04:39:09;;;;;;;1.67;1.50;;;16.50;53.50;;;;;;5037441;28;20166;-89
2022/04/16 04:41:35;;;;;;;1.80;1.70;;;16.50;53.50;;;;;;5037576;28;20470;-89
2022/04/16 04:44:01;;;;;;;1.90;1.70;;;16.40;53.50;;;;;;5037234;28;20201;-89
2022/04/16 04:46:27;;;;;;;2.00;1.80;;;16.40;53.50;;;;;;5037151;28;20283;-89
2022/04/16 04:48:52;;;;;;;1.97;1.53;;;16.40;53.50;;;;;;5037169;28;20384;-89
2022/04/16 04:51:18;;;;;;;1.50;1.40;;;16.40;53.40;;;;;;5054834;28;20507;-89
2022/04/16 04:53:44;;;;;;;2.00;1.60;;;16.40;53.50;;;;;;5037276;28;20440;-89
2022/04/16 04:56:10;;;;;;;1.70;1.60;;;16.40;53.40;;;;;;5036870;28;20420;-90
2022/04/16 04:58:35;;;;;;;1.90;1.70;;;16.40;53.40;;;;;;5037997;28;20172;-90
2022/04/16 05:01:01;;;;;;;2.33;1.70;;;16.50;53.30;;;;;;5036941;28;20174;-90
2022/04/16 05:03:27;;;;;;;1.90;1.50;;;16.50;53.10;;;;;;5036205;28;20171;-90
2022/04/16 05:05:53;;;;;;;2.20;1.90;;;16.60;52.90;;;;;;5036976;28;20930;-90
2022/04/16 05:08:18;;;;;;;1.80;1.53;;;16.70;52.80;;;;;;5039041;28;20186;-90
2022/04/16 05:10:44;;;;;;;1.63;1.50;;;16.70;52.60;;;;;;5040689;28;20235;-90
2022/04/16 05:13:10;;;;;;;2.10;1.70;;;16.80;52.40;;;;;;5040054;28;20170;-90
2022/04/16 05:15:35;;;;;;;2.17;1.63;;;16.80;52.20;;;;;;5056998;28;20170;-90
2022/04/16 05:18:01;;;;;;;1.60;1.50;;;16.80;52.00;;;;;;5056784;28;20182;-90
2022/04/16 05:20:27;;;;;;;1.70;1.60;;;16.90;51.90;;;;;;5039911;28;20512;-90
2022/04/16 05:22:53;;;;;;;1.70;1.60;;;16.90;51.80;;;;;;5039847;28;20175;-90
2022/04/16 05:25:18;;;;;;;1.80;1.70;;;16.90;51.70;;;;;;5039589;28;20514;-90
2022/04/16 05:27:45;;;;;;;1.80;1.70;;;16.90;51.70;;;;;;5039389;28;20494;-90
2022/04/16 05:30:22;;;;;;;1.87;1.77;;;16.90;51.60;;;;;;5057242;28;20171;-89
2022/04/16 05:32:50;;;;;;;1.97;1.80;;;16.90;51.60;;;;;;5039373;28;20174;-89
2022/04/16 05:35:16;;;;;;;1.73;1.63;;;17.00;51.60;;;;;;5039818;28;20189;-89
2022/04/16 05:37:42;;;;;;;1.80;1.70;;;17.00;51.60;;;;;;5040087;28;20289;-89
2022/04/16 05:40:10;;;;;;;1.67;1.57;;;17.00;51.40;;;;;;5039288;28;20275;-90
2022/04/16 05:42:43;;;;;;;1.90;1.80;;;17.10;51.50;;;;;;5040263;28;20174;-89
2022/04/16 05:45:14;;;;;;;2.90;1.83;;;17.00;51.40;;;;;;5040489;28;20208;-89
2022/04/16 05:47:41;;;;;;;1.73;1.63;;;17.00;51.40;;;;;;5039793;28;20215;-89
2022/04/16 05:50:07;;;;;;;2.00;1.80;;;17.00;51.40;;;;;;5038821;28;20465;-89
2022/04/16 05:52:34;;;;;;;2.13;1.70;;;17.10;51.40;;;;;;5039375;28;20183;-90
2022/04/16 05:55:01;;;;;;;2.10;1.90;;;17.10;51.30;;;;;;5039079;28;20176;-89
2022/04/16 05:57:28;;;;;;;1.90;1.70;;;17.10;51.30;;;;;;5038994;28;20177;-89
2022/04/16 05:59:57;;;;;;;2.30;1.70;;;17.20;51.10;;;;;;5039212;28;20442;-89
2022/04/16 06:02:23;;;;;;;2.20;1.90;;;17.20;51.00;;;;;;5056307;28;20176;-89
2022/04/16 06:04:49;;;;;;;2.10;1.90;;;17.30;51.10;;;;;;5037456;28;20174;-89
2022/04/16 06:07:15;;;;;;;1.77;1.67;;;17.30;50.80;;;;;;5037750;28;20222;-89
2022/04/16 06:09:41;;;;;;;2.10;1.90;;;17.40;50.80;;;;;;5038998;28;20267;-89
2022/04/16 06:12:09;;;;;;;1.60;1.50;;;17.40;50.60;;;;;;5038752;28;20255;-89
2022/04/16 06:14:35;;;;;;;2.00;1.90;;;17.50;50.60;;;;;;5038464;28;20578;-89
2022/04/16 06:17:01;;;;;;;2.03;1.80;;;17.50;50.50;;;;;;5038293;28;20203;-89
2022/04/16 06:19:27;;;;;;;2.00;1.80;;;17.50;50.40;;;;;;5037918;28;20169;-89
2022/04/16 06:21:53;;;;;;;2.57;2.27;;;17.50;50.30;;;;;;5037754;28;20212;-89
2022/04/16 06:24:20;;;;;;;1.70;1.60;;;17.60;50.20;;;;;;5037331;28;20172;-89
2022/04/16 06:26:47;;;;;;;2.00;1.80;;;17.60;50.10;;;;;;5037186;28;20207;-90
2022/04/16 06:29:16;;;;;;;2.50;2.30;;;17.70;50.00;;;;;;5038795;28;20194;-89
2022/04/16 06:31:42;;;;;;;2.00;1.90;;;17.80;49.90;;;;;;5038302;28;20172;-89
2022/04/16 06:34:08;;;;;;;2.17;1.97;;;18.00;49.70;;;;;;5036976;28;20164;-89
2022/04/16 06:36:34;;;;;;;2.23;2.00;;;18.10;49.50;;;;;;5038201;28;20478;-90
2022/04/16 06:39:00;;;;;;;2.40;2.20;;;18.20;49.20;;;;;;5036621;28;20586;-90
2022/04/16 06:41:25;;;;;;;2.53;2.13;;;18.20;49.10;;;;;;5036885;28;20176;-89
2022/04/16 06:43:51;;;;;;;2.30;2.10;;;18.30;48.90;;;;;;5037724;28;20393;-89
2022/04/16 06:46:17;;;;;;;2.40;2.20;;;18.20;48.90;;;;;;5036973;28;20247;-89
2022/04/16 06:48:43;;;;;;;2.33;2.13;;;18.20;49.00;;;;;;5036323;28;20184;-89
2022/04/16 06:51:08;;;;;;;2.00;1.80;;;18.20;49.00;;;;;;5036566;28;20266;-90
2022/04/16 06:53:34;;;;;;;1.90;1.80;;;18.40;48.70;;;;;;5036779;28;20420;-90
2022/04/16 06:56:00;;;;;;;2.30;1.93;;;18.60;48.50;;;;;;5037261;28;20306;-90
2022/04/16 06:58:29;;;;;;;2.43;2.03;;;18.60;48.40;;;;;;5036761;28;20170;-89
2022/04/16 07:00:59;;;;;;;2.20;2.00;;;18.70;48.30;;;;;;5036569;28;20508;-89
2022/04/16 07:03:25;;;;;;;2.43;2.07;;;18.60;48.30;;;;;;5036752;28;20179;-90
2022/04/16 07:05:50;;;;;;;2.80;2.13;;;18.70;48.40;;;;;;5053993;28;20174;-90
2022/04/16 07:08:16;;;;;;;2.50;2.30;;;18.90;48.10;;;;;;5036906;28;20273;-90
2022/04/16 07:10:42;;;;;;;2.80;2.33;;;19.10;47.90;;;;;;5036645;28;20172;-90
2022/04/16 07:13:07;;;;;;;2.70;2.30;;;19.20;47.80;;;;;;5036412;28;20179;-89
2022/04/16 07:15:33;;;;;;;2.63;2.20;;;19.20;47.80;;;;;;5035962;28;20179;-89
2022/04/16 07:17:59;;;;;;;3.27;2.53;;;19.10;48.00;;;;;;5035281;28;20176;-90
2022/04/16 07:20:26;;;;;;;2.70;2.27;;;19.30;48.00;;;;;;5054621;28;20164;-89
2022/04/16 07:22:51;;;;;;;2.90;2.47;;;19.40;48.00;;;;;;5036038;28;20477;-90
2022/04/16 07:25:17;;;;;;;2.40;2.20;;;19.60;47.80;;;;;;5035929;28;20494;-90
2022/04/16 07:27:43;;;;;;;2.20;2.00;;;19.70;47.80;;;;;;5035325;28;20594;-90
2022/04/16 07:30:10;;;;;;;2.27;2.07;;;19.80;47.70;;;;;;5035062;28;20182;-90
2022/04/16 07:32:36;;;;;;;2.87;2.43;;;19.90;47.60;;;;;;5034335;28;20409;-90
2022/04/16 07:35:03;;;;;;;2.90;2.60;;;20.00;47.40;;;;;;5035671;28;20480;-90
2022/04/16 07:37:28;;;;;;;2.70;2.50;;;20.10;47.40;;;;;;5034653;28;20286;-90
2022/04/16 07:39:54;;;;;;;2.77;2.53;;;20.20;47.30;;;;;;5033109;28;20283;-90
2022/04/16 07:42:20;;;;;;;2.70;2.50;;;20.20;47.40;;;;;;5033755;28;20229;-90
2022/04/16 07:44:45;;;;;;;2.80;2.53;;;19.80;47.70;;;;;;5035055;28;20205;-90
2022/04/16 07:47:11;;;;;;;2.60;2.40;;;19.70;47.90;;;;;;5033544;28;20452;-90
2022/04/16 07:49:37;;;;;;;2.70;2.50;;;20.10;47.80;;;;;;5033861;28;20179;-90
2022/04/16 07:52:03;;;;;;;2.50;2.30;;;20.30;47.50;;;;;;5033249;28;20180;-90
2022/04/16 07:54:29;;;;;;;2.70;2.43;;;20.50;47.10;;;;;;5033299;28;20168;-90
2022/04/16 07:56:54;;;;;;;2.77;2.40;;;20.60;46.80;;;;;;5050247;28;20168;-90
2022/04/16 07:59:20;;;;;;;3.10;2.80;;;20.80;46.60;;;;;;5034265;28;20394;-90
2022/04/16 08:01:46;;;;;;;2.97;2.73;;;20.90;46.50;;;;;;5034451;28;20176;-90
2022/04/16 08:04:12;;;;;;;2.50;2.30;;;20.90;46.40;;;;;;5032470;28;20262;-90
2022/04/16 08:06:37;;;;;;;2.80;2.60;;;21.00;46.30;;;;;;5032709;28;20290;-90
2022/04/16 08:09:03;;;;;;;3.00;2.70;;;21.10;46.20;;;;;;5033789;28;20199;-89
2022/04/16 08:11:33;;;;;;;2.70;2.50;;;21.10;46.10;;;;;;5034072;28;20184;-90
2022/04/16 08:13:59;;;;;;;3.30;3.00;;;21.10;46.00;;;;;;5034261;28;20196;-90
2022/04/16 08:16:25;;;;;;;3.57;3.10;;;20.90;46.30;;;;;;5033428;28;20187;-92
2022/04/16 08:18:51;;;;;;;3.90;3.50;;;21.10;46.20;;;;;;5033762;28;20168;-91
2022/04/16 08:21:17;;;;;;;3.03;2.63;;;21.30;46.00;;;;;;5033074;28;20179;-91
2022/04/16 08:23:55;;;;;;;3.33;2.97;;;21.40;45.90;;;;;;5033415;28;20473;-91
2022/04/16 08:26:25;;;;;;;3.20;2.90;;;21.20;45.70;;;;;;5033576;28;20208;-91
2022/04/16 08:28:51;;;;;;;2.87;2.67;;;20.90;46.30;;;;;;5033116;28;20234;-91
2022/04/16 08:31:17;;;;;;;3.13;2.63;;;21.10;46.30;;;;;;5032881;28;20340;-91
2022/04/16 08:33:43;;;;;;;3.10;2.47;;;21.30;46.10;;;;;;5032747;28;20164;-91
2022/04/16 08:36:08;;;;;;;3.07;2.80;;;21.50;45.80;;;;;;5033449;28;20195;-92
2022/04/16 08:38:34;;;;;;;3.30;3.00;;;21.40;45.70;;;;;;5031600;28;20176;-91
2022/04/16 08:41:01;;;;;;;2.60;2.40;;;20.70;46.10;;;;;;5033456;28;20164;-91
2022/04/16 08:43:29;;;;;;;3.30;3.00;;;20.20;46.90;;;;;;5036639;28;20164;-91
2022/04/16 08:45:56;;;;;;;3.40;3.10;;;20.20;47.50;;;;;;5037758;28;20204;-91
2022/04/16 08:48:22;;;;;;;3.10;2.80;;;20.50;47.30;;;;;;5037935;28;20257;-91
2022/04/16 08:50:48;;;;;;;3.13;2.83;;;21.10;46.70;;;;;;5038272;28;20176;-90
2022/04/16 08:53:15;;;;;;;3.80;3.27;;;21.40;46.20;;;;;;5036913;28;20375;-91
2022/04/16 08:55:41;;;;;;;3.10;2.87;;;21.60;45.80;;;;;;5036906;28;20168;-91
2022/04/16 08:58:07;;;;;;;3.10;2.80;;;21.80;45.60;;;;;;5036637;28;20448;-91
2022/04/16 09:00:33;;;;;;;3.20;2.90;;;21.90;45.50;;;;;;5033752;28;20259;-91
2022/04/16 09:03:03;;;;;;;3.30;3.00;;;22.00;45.40;;;;;;5035457;28;20180;-92
2022/04/16 09:05:29;;;;;;;3.03;2.80;;;22.10;45.20;;;;;;5035959;28;20172;-92
2022/04/16 09:07:59;;;;;;;3.50;3.10;;;22.10;45.20;;;;;;5033983;28;20219;-91
2022/04/16 09:10:30;;;;;;;3.00;2.75;;;22.10;45.10;;;;;;5037079;28;20226;-91
2022/04/16 09:12:59;;;;;;;4.23;3.00;;;22.20;45.00;;;;;;5037240;28;20459;-91
2022/04/16 09:15:26;;;;;;;3.00;2.67;;;22.10;45.10;;;;;;5036338;28;20294;-91
2022/04/16 09:18:05;;;;;;;2.90;2.60;;;21.60;45.40;;;;;;5034227;28;20539;-91
2022/04/16 09:20:31;;;;;;;3.10;2.80;;;21.90;45.40;;;;;;5034933;28;20176;-91
2022/04/16 09:22:56;;;;;;;3.33;2.90;;;22.10;45.20;;;;;;5036645;28;20188;-91
2022/04/16 09:25:22;;;;;;;3.33;3.03;;;21.80;45.30;;;;;;5036420;28;20458;-92
2022/04/16 09:27:50;;;;;;;3.63;3.33;;;21.20;45.70;;;;;;5035282;28;20506;-91
2022/04/16 09:30:51;;;;;;;3.47;3.10;;;21.00;46.30;;;;;;5035917;28;20172;-92
2022/04/16 09:33:17;;;;;;;3.60;3.30;;;21.60;45.80;;;;;;5004414;28;20175;-92
2022/04/16 09:35:43;;;;;;;3.33;3.03;;;22.10;45.30;;;;;;5036997;28;20184;-92
2022/04/16 09:38:12;;;;;;;3.63;3.10;;;22.30;45.00;;;;;;5036106;28;20179;-92
2022/04/16 09:40:38;;;;;;;3.20;2.90;;;22.30;44.90;;;;;;5036943;28;20195;-91
2022/04/16 09:43:06;;;;;;;3.80;3.13;;;22.30;44.70;;;;;;5035780;28;20343;-91
2022/04/16 09:45:33;;;;;;;3.47;3.17;;;22.00;44.70;;;;;;5035955;28;20559;-91
2022/04/16 09:47:59;;;;;;;3.50;3.00;;;21.60;45.00;;;;;;5036211;28;20400;-90
2022/04/16 09:50:32;;;;;;;3.28;2.97;;;21.30;45.50;;;;;;5035405;28;20378;-91
2022/04/16 09:53:04;;;;;;;3.08;2.78;;;21.00;45.90;;;;;;5034025;28;20187;-92
2022/04/16 09:55:29;;;;;;;3.35;3.05;;;20.70;46.30;;;;;;5034715;28;20417;-92
2022/04/16 09:58:01;;;;;;;4.95;2.63;;;20.40;46.60;;;;;;5036451;28;20206;-91
2022/04/16 10:00:28;;;;;;;3.63;2.93;;;20.30;47.00;;;;;;5036438;28;20180;-91
2022/04/16 10:02:54;;;;;;;3.42;2.63;;;20.20;47.20;;;;;;5035738;28;20234;-91
2022/04/16 10:05:21;;;;;;;2.65;2.45;;;20.00;47.30;;;;;;5033712;28;20271;-91
2022/04/16 10:07:48;;;;;;;3.43;3.13;;;20.00;47.50;;;;;;5035409;28;20208;-92
2022/04/16 10:10:30;;;;;;;3.22;2.92;;;19.90;47.50;;;;;;5034458;28;20199;-92
2022/04/16 10:13:07;;;;;;;2.73;2.50;;;19.90;47.60;;;;;;5034641;28;20172;-91
2022/04/16 10:15:45;;;;;;;2.80;2.60;;;19.90;47.70;;;;;;5034603;28;20328;-91
2022/04/16 10:18:14;;;;;;;3.67;2.80;;;19.80;47.80;;;;;;5035833;28;20167;-91
2022/04/16 10:20:55;;;;;;;3.57;2.83;;;19.70;47.80;;;;;;5034414;28;20176;-92
2022/04/16 10:23:32;;;;;;;3.17;2.90;;;19.70;47.90;;;;;;5035423;28;20246;-91
2022/04/16 10:26:09;;;;;;;3.30;3.00;;;19.70;48.10;;;;;;5033917;28;20176;-91
2022/04/16 10:29:02;;;;;;;3.00;2.70;;;19.70;48.10;;;;;;5035682;28;20229;-92
2022/04/16 10:31:33;;;;;;;3.10;2.80;;;19.60;48.10;;;;;;5031321;28;20172;-92
2022/04/16 10:34:11;;;;;;;3.40;2.90;;;19.60;48.20;;;;;;5034378;28;20168;-90
2022/04/16 10:36:41;;;;;;;2.97;2.63;;;19.60;48.10;;;;;;5033630;28;20191;-90
2022/04/16 10:39:31;;;;;;;3.23;2.93;;;19.50;48.60;;;;;;5033493;28;20179;-91
2022/04/16 10:42:04;;;;;;;3.10;2.80;;;19.40;48.20;;;;;;5034352;28;20570;-91
2022/04/16 10:44:46;;;;;;;3.73;2.60;;;19.50;48.30;;;;;;5035209;28;20168;-92
2022/04/16 10:47:16;;;;;;;2.70;2.50;;;19.40;48.30;;;;;;5033319;28;20200;-90
2022/04/16 10:49:42;;;;;;;3.63;2.77;;;19.40;48.40;;;;;;5032587;28;20187;-90
2022/04/16 10:52:22;;;;;;;2.70;2.47;;;19.40;48.30;;;;;;5032951;28;20183;-91
2022/04/16 10:54:59;;;;;;;3.20;2.90;;;19.40;48.40;;;;;;5033737;28;20174;-91
2022/04/16 10:57:25;;;;;;;2.60;2.40;;;19.40;48.40;;;;;;5033285;28;20269;-91
2022/04/16 11:00:00;;;;;;;2.67;2.40;;;19.30;48.50;;;;;;5031771;28;20172;-91
2022/04/16 11:02:30;;;;;;;2.63;2.43;;;19.30;48.40;;;;;;5033592;28;20241;-91
2022/04/16 11:05:05;;;;;;;2.90;2.60;;;19.30;48.40;;;;;;5034275;28;20187;-91
2022/04/16 11:07:35;;;;;;;2.93;2.40;;;19.30;48.40;;;;;;5033926;28;20199;-91
2022/04/16 11:10:04;;;;;;;2.53;2.33;;;19.20;48.30;;;;;;5034718;28;20221;-91
2022/04/16 11:12:29;;;;;;;2.70;2.33;;;19.20;48.40;;;;;;5034210;28;20168;-91
2022/04/16 11:14:55;;;;;;;2.80;2.50;;;19.20;48.50;;;;;;5034946;28;20195;-91
2022/04/16 11:17:21;;;;;;;2.63;2.20;;;19.20;48.40;;;;;;5032231;28;20176;-90
2022/04/16 11:20:05;;;;;;;3.17;2.43;;;19.20;48.50;;;;;;5033960;28;20173;-90
2022/04/16 11:22:32;;;;;;;2.60;2.40;;;19.10;48.50;;;;;;5034939;28;20580;-91
2022/04/16 11:25:08;;;;;;;2.37;2.03;;;19.10;48.30;;;;;;5032468;28;20416;-91
2022/04/16 11:36:11;;;;;;;2.20;2.00;;;19.00;48.40;;;;;;5050133;28;20506;-91
2022/04/16 11:38:39;;;;;;;3.30;1.90;;;19.00;48.50;;;;;;5031761;28;20168;-90
2022/04/16 11:41:14;;;;;;;3.63;1.97;;;19.00;48.60;;;;;;5031389;28;20175;-91
2022/04/16 11:43:48;;;;;;;2.20;2.00;;;19.00;48.50;;;;;;5031031;28;20270;-91
2022/04/16 11:46:14;;;;;;;2.10;1.90;;;19.00;48.50;;;;;;5031685;28;20199;-90
2022/04/16 11:48:45;;;;;;;2.50;2.00;;;19.00;48.60;;;;;;5048400;28;20555;-90
2022/04/16 11:51:12;;;;;;;2.10;1.80;;;18.90;48.40;;;;;;5031126;28;20169;-91
2022/04/16 11:53:45;;;;;;;1.97;1.77;;;18.90;48.40;;;;;;5031291;28;20211;-90
2022/04/16 11:56:11;;;;;;;2.10;1.90;;;18.90;48.50;;;;;;5031775;28;20495;-91
2022/04/16 11:58:37;;;;;;;2.27;1.77;;;18.80;48.50;;;;;;5032366;28;20552;-91
2022/04/16 12:01:03;;;;;;;2.50;2.07;;;18.90;48.40;;;;;;5030605;28;20260;-90
2022/04/16 12:03:39;;;;;;;1.80;1.63;;;18.90;48.40;;;;;;5031125;28;20247;-90
2022/04/16 12:06:13;;;;;;;2.20;1.70;;;18.90;48.40;;;;;;5030237;28;20183;-91
2022/04/16 12:08:46;;;;;;;1.60;1.50;;;18.80;48.20;;;;;;5031731;28;20188;-90
2022/04/16 12:11:15;;;;;;;2.50;1.60;;;18.80;48.40;;;;;;5031037;28;20341;-91
2022/04/16 12:13:42;;;;;;;1.73;1.63;;;18.80;48.30;;;;;;5030964;28;20204;-91
2022/04/16 12:16:13;;;;;;;2.43;1.70;;;18.80;48.50;;;;;;5030038;28;20174;-90
2022/04/16 12:18:44;;;;;;;2.33;1.90;;;18.80;48.40;;;;;;5030319;28;20171;-90
2022/04/16 12:21:13;;;;;;;2.07;1.70;;;18.70;48.20;;;;;;5030123;28;20174;-90
2022/04/16 12:23:40;;;;;;;2.10;1.80;;;18.70;48.20;;;;;;5031535;28;20168;-91
2022/04/16 12:26:09;;;;;;;2.00;1.57;;;18.70;48.20;;;;;;5030075;28;20172;-90
2022/04/16 12:28:40;;;;;;;2.00;1.70;;;18.70;48.20;;;;;;5029629;28;20701;-90
2022/04/16 12:31:06;;;;;;;3.00;2.00;;;18.60;48.00;;;;;;5031170;28;20274;-90
2022/04/16 12:33:31;;;;;;;1.90;1.53;;;18.60;48.00;;;;;;5031844;28;20180;-90
2022/04/16 12:36:00;;;;;;;2.10;1.63;;;18.60;47.90;;;;;;5031726;28;20548;-90
2022/04/16 12:38:26;;;;;;;2.10;1.57;;;18.60;47.90;;;;;;5032755;28;20172;-90
2022/04/16 12:41:08;;;;;;;3.83;1.60;;;18.60;47.90;;;;;;5029461;28;20174;-91
2022/04/16 12:43:34;;;;;;;2.17;1.53;;;18.60;47.90;;;;;;5032389;28;20184;-92
2022/04/16 12:46:00;;;;;;;2.87;1.70;;;18.60;47.80;;;;;;5031085;28;20181;-90
2022/04/16 12:48:26;;;;;;;1.73;1.40;;;18.50;47.70;;;;;;5033318;28;20346;-92
2022/04/16 12:50:52;;;;;;;1.50;1.40;;;18.60;47.70;;;;;;5032261;28;20212;-92
2022/04/16 12:53:18;;;;;;;2.83;1.40;;;18.60;47.50;;;;;;5032692;28;20242;-92
2022/04/16 12:55:44;;;;;;;2.23;1.20;;;18.50;47.50;;;;;;5032091;28;20171;-92
2022/04/16 12:58:10;;;;;;;3.70;1.37;;;18.60;47.60;;;;;;5032739;28;20369;-91
2022/04/16 13:00:35;;;;;;;2.10;1.40;;;18.60;47.60;;;;;;5033145;28;20572;-92
2022/04/16 13:03:02;;;;;;;1.67;1.50;;;18.50;47.50;;;;;;5031898;28;20391;-92
2022/04/16 13:05:29;;;;;;;1.50;1.30;;;18.60;47.60;;;;;;5033546;28;20178;-92
2022/04/16 13:07:58;;;;;;;1.60;1.10;;;18.50;47.50;;;;;;5035566;28;20206;-92
2022/04/16 13:10:23;;;;;;;1.37;1.20;;;18.50;47.40;;;;;;5030536;28;20169;-91